createdAt,value
2023-01-10T00:02:52.718Z,14.25
2023-01-10T00:06:35.297Z,15.00
2023-01-10T00:09:03.221Z,14.75
2023-01-10T00:15:39.827Z,17.00
2023-01-10T00:18:29.388Z,16.00
2023-01-10T00:20:59.090Z,15.00
2023-01-10T00:23:30.529Z,16.00
2023-01-10T00:26:26.440Z,14.25
2023-01-10T00:28:54.851Z,14.50
2023-01-10T00:31:32.074Z,14.50
2023-01-10T00:34:33.921Z,15.00
2023-01-10T00:40:27.180Z,12.00
2023-01-10T00:43:13.868Z,13.00
2023-01-10T00:48:32.485Z,12.00
2023-01-10T00:51:09.231Z,12.75
2023-01-10T00:56:22.278Z,12.00
2023-01-10T00:58:50.687Z,9.00
2023-01-10T01:01:42.469Z,11.00
2023-01-10T01:04:13.295Z,10.50
2023-01-10T01:07:03.638Z,12.00
2023-01-10T01:09:31.755Z,10.25
2023-01-10T01:12:22.761Z,10.00
2023-01-10T01:15:07.660Z,10.25
2023-01-10T01:17:44.809Z,10.00
2023-01-10T01:20:15.513Z,9.50
2023-01-10T01:22:44.757Z,10.25
2023-01-10T01:25:24.975Z,8.00
2023-01-10T01:28:26.557Z,9.50
2023-01-10T01:30:55.642Z,8.00
2023-01-10T01:33:31.275Z,8.00
2023-01-10T01:36:54.422Z,8.00
2023-01-10T01:39:24.491Z,8.00
2023-01-10T01:42:02.949Z,8.00
2023-01-10T01:44:31.760Z,8.00
2023-01-10T01:47:03.486Z,7.00
2023-01-10T01:49:44.585Z,8.00
2023-01-10T01:52:20.541Z,6.75
2023-01-10T01:55:19.111Z,6.25
2023-01-10T01:57:49.833Z,6.25
2023-01-10T02:00:18.088Z,6.75
2023-01-10T02:03:01.818Z,7.00
2023-01-10T02:05:35.305Z,5.75
2023-01-10T02:08:18.389Z,6.00
2023-01-10T02:11:13.769Z,5.25
2023-01-10T02:18:01.878Z,5.00
2023-01-10T02:21:19.878Z,5.25
2023-01-10T02:24:17.659Z,5.75
2023-01-10T02:27:02.195Z,4.75
2023-01-10T02:30:14.599Z,4.00
2023-01-10T02:33:00.589Z,4.50
2023-01-10T02:36:11.859Z,4.75
2023-01-10T02:39:05.571Z,5.00
2023-01-10T02:42:07.954Z,4.25
2023-01-10T02:44:43.869Z,4.25
2023-01-10T02:50:45.379Z,4.00
2023-01-10T02:53:23.071Z,5.00
2023-01-10T02:56:08.180Z,4.25
2023-01-10T02:58:45.983Z,4.00
2023-01-10T03:01:42.470Z,4.00
2023-01-10T03:04:48.592Z,3.00
2023-01-10T03:11:14.432Z,3.00
2023-01-10T03:14:07.697Z,4.00
2023-01-10T03:20:10.229Z,3.00
2023-01-10T03:22:56.595Z,3.25
2023-01-10T03:29:13.109Z,4.00
2023-01-10T03:32:11.290Z,3.00
2023-01-10T03:34:39.349Z,3.00
2023-01-10T03:37:21.376Z,3.00
2023-01-10T03:40:30.141Z,3.00
2023-01-10T03:43:23.075Z,3.00
2023-01-10T03:46:29.774Z,3.00
2023-01-10T03:49:07.993Z,2.50
2023-01-10T03:52:02.549Z,3.00
2023-01-10T03:54:30.587Z,3.00
2023-01-10T03:57:03.894Z,3.00
2023-01-10T03:59:43.773Z,2.00
2023-01-10T04:02:20.849Z,2.00
2023-01-10T04:04:53.430Z,2.50
2023-01-10T04:07:39.533Z,2.75
2023-01-10T04:10:44.236Z,2.00
2023-01-10T04:13:24.735Z,3.00
2023-01-10T04:16:00.012Z,3.00
2023-01-10T04:19:01.671Z,3.00
2023-01-10T04:21:46.972Z,2.50
2023-01-10T04:24:15.414Z,2.00
2023-01-10T04:27:04.459Z,2.50
2023-01-10T04:32:40.173Z,2.00
2023-01-10T04:35:23.975Z,2.00
2023-01-10T04:37:56.185Z,2.00
2023-01-10T04:43:18.291Z,2.25
2023-01-10T04:45:55.341Z,1.00
2023-01-10T04:48:23.402Z,2.50
2023-01-10T04:50:52.163Z,2.00
2023-01-10T04:53:42.531Z,2.00
2023-01-10T04:56:23.622Z,2.00
2023-01-10T04:59:06.449Z,2.00
2023-01-10T05:01:49.470Z,2.00
2023-01-10T05:04:20.121Z,1.00
2023-01-10T05:07:06.445Z,2.00
2023-01-10T05:09:51.182Z,2.00
2023-01-10T05:12:21.887Z,1.00
2023-01-10T05:14:50.346Z,2.00
2023-01-10T05:17:40.119Z,2.00
2023-01-10T05:20:08.846Z,3.25
2023-01-10T05:22:54.967Z,3.00
2023-01-10T05:32:18.583Z,5.00
2023-01-10T05:35:08.640Z,5.00
2023-01-10T05:37:57.281Z,6.75
2023-01-10T05:40:27.985Z,6.00
2023-01-10T05:45:43.505Z,7.00
2023-01-10T05:48:17.396Z,8.00
2023-01-10T05:53:43.936Z,6.00
2023-01-10T05:56:12.627Z,8.50
2023-01-10T05:59:00.609Z,7.50
2023-01-10T06:01:36.276Z,8.00
2023-01-10T06:04:06.406Z,8.00
2023-01-10T06:09:34.861Z,8.00
2023-01-10T06:12:22.616Z,9.00
2023-01-10T06:15:27.761Z,8.00
2023-01-10T06:18:11.799Z,8.75
2023-01-10T06:20:40.456Z,8.50
2023-01-10T06:23:20.626Z,8.75
2023-01-10T06:26:00.483Z,8.00
2023-01-10T06:29:25.210Z,8.00
2023-01-10T06:31:58.365Z,8.50
2023-01-10T06:34:37.686Z,8.75
2023-01-10T06:37:06.374Z,7.75
2023-01-10T06:39:50.757Z,6.50
2023-01-10T06:42:24.551Z,7.50
2023-01-10T06:44:55.066Z,7.00
2023-01-10T06:50:12.202Z,6.50
2023-01-10T06:52:42.454Z,6.00
2023-01-10T06:55:10.825Z,6.00
2023-01-10T06:57:39.507Z,6.50
2023-01-10T07:00:28.028Z,6.00
2023-01-10T07:02:57.715Z,6.00
2023-01-10T07:05:44.580Z,6.00
2023-01-10T07:08:36.983Z,5.75
2023-01-10T07:11:08.581Z,5.25
2023-01-10T07:13:49.147Z,6.00
2023-01-10T07:16:21.611Z,6.00
2023-01-10T07:18:56.775Z,5.00
2023-01-10T07:21:47.836Z,4.50
2023-01-10T07:24:16.026Z,5.00
2023-01-10T07:26:43.884Z,5.00
2023-01-10T07:29:14.760Z,5.00
2023-01-10T07:31:43.247Z,5.00
2023-01-10T07:34:15.704Z,5.00
2023-01-10T07:36:45.688Z,6.00
2023-01-10T07:39:14.971Z,4.25
2023-01-10T07:41:55.379Z,4.00
2023-01-10T07:44:24.291Z,4.50
2023-01-10T07:46:52.465Z,4.25
2023-01-10T07:49:29.343Z,4.00
2023-01-10T07:52:00.429Z,4.25
2023-01-10T07:54:45.254Z,4.00
2023-01-10T07:57:16.484Z,4.00
2023-01-10T07:59:45.366Z,4.50
2023-01-10T08:02:13.750Z,4.00
2023-01-10T08:04:44.173Z,3.00
2023-01-10T08:07:27.133Z,4.00
2023-01-10T08:09:56.662Z,3.00
2023-01-10T08:15:27.507Z,3.75
2023-01-10T08:17:56.089Z,3.00
2023-01-10T08:20:27.100Z,3.75
2023-01-10T08:22:54.955Z,2.00
2023-01-10T08:25:27.452Z,3.00
2023-01-10T08:27:59.364Z,3.00
2023-01-10T08:30:29.866Z,3.00
2023-01-10T08:32:58.385Z,3.50
2023-01-10T08:35:26.810Z,3.00
2023-01-10T08:38:26.973Z,3.00
2023-01-10T08:40:58.930Z,3.00
2023-01-10T08:43:29.976Z,3.00
2023-01-10T08:46:22.420Z,3.00
2023-01-10T08:48:56.861Z,3.00
2023-01-10T08:51:27.348Z,2.50
2023-01-10T08:54:08.996Z,3.00
2023-01-10T08:56:52.330Z,2.00
2023-01-10T08:59:23.479Z,3.00
2023-01-10T09:02:18.314Z,3.00
2023-01-10T09:04:47.764Z,2.00
2023-01-10T09:07:46.602Z,2.00
2023-01-10T09:10:29.869Z,3.00
2023-01-10T09:13:07.398Z,2.00
2023-01-10T09:15:39.750Z,2.00
2023-01-10T09:18:10.968Z,2.00
2023-01-10T09:20:50.453Z,2.00
2023-01-10T09:23:22.818Z,2.00
2023-01-10T09:26:03.585Z,2.00
2023-01-10T09:28:33.053Z,2.00
2023-01-10T09:31:04.558Z,2.00
2023-01-10T09:33:45.825Z,2.00
2023-01-10T09:36:17.934Z,1.25
2023-01-10T09:38:55.078Z,2.00
2023-01-10T09:41:36.143Z,2.00
2023-01-10T09:44:17.542Z,2.00
2023-01-10T09:47:23.556Z,1.25
2023-01-10T09:50:01.081Z,2.00
2023-01-10T09:52:30.348Z,2.00
2023-01-10T09:54:58.521Z,2.00
2023-01-10T09:57:29.506Z,2.00
2023-01-10T09:59:59.338Z,1.00
2023-01-10T10:02:33.300Z,2.00
2023-01-10T10:05:09.771Z,2.00
2023-01-10T10:07:37.674Z,1.25
2023-01-10T10:10:15.481Z,1.50
2023-01-10T10:12:47.070Z,2.00
2023-01-10T10:15:21.446Z,2.00
2023-01-10T10:18:16.270Z,2.00
2023-01-10T10:21:19.313Z,1.00
2023-01-10T10:24:11.578Z,1.50
2023-01-10T10:26:51.150Z,1.25
2023-01-10T10:30:15.436Z,2.00
2023-01-10T10:33:36.927Z,1.00
2023-01-10T10:36:10.795Z,2.00
2023-01-10T10:38:48.057Z,1.00
2023-01-10T10:41:34.100Z,1.00
2023-01-10T10:44:04.977Z,1.00
2023-01-10T10:46:34.585Z,1.00
2023-01-10T10:49:08.555Z,1.25
2023-01-10T10:52:01.724Z,1.00
2023-01-10T10:54:30.212Z,1.00
2023-01-10T10:57:23.133Z,1.50
2023-01-10T10:59:51.363Z,1.00
2023-01-10T11:02:27.469Z,1.00
2023-01-10T11:04:58.439Z,2.00
2023-01-10T11:07:31.278Z,1.00
2023-01-10T11:10:25.489Z,1.00
2023-01-10T11:12:53.603Z,1.75
2023-01-10T11:15:43.716Z,1.00
2023-01-10T11:18:38.641Z,1.50
2023-01-10T11:21:16.908Z,1.00
2023-01-10T11:23:54.390Z,1.00
2023-01-10T11:26:39.846Z,1.00
2023-01-10T11:29:31.882Z,1.00
2023-01-10T11:32:10.425Z,1.00
2023-01-10T11:34:53.661Z,1.00
2023-01-10T11:37:29.677Z,2.00
2023-01-10T11:40:18.706Z,1.50
2023-01-10T11:42:46.834Z,0.25
2023-01-10T11:45:32.699Z,2.00
2023-01-10T11:48:08.696Z,1.25
2023-01-10T11:50:38.399Z,1.00
2023-01-10T11:53:08.628Z,1.00
2023-01-10T11:55:39.797Z,1.00
2023-01-10T11:58:19.950Z,1.00
2023-01-10T12:00:59.282Z,1.00
2023-01-10T12:03:38.129Z,1.00
2023-01-10T12:06:15.518Z,1.00
2023-01-10T12:09:01.059Z,0.25
2023-01-10T12:11:32.419Z,1.00
2023-01-10T12:14:02.103Z,1.00
2023-01-10T12:16:31.079Z,1.00
2023-01-10T12:19:01.044Z,0.25
2023-01-10T12:21:32.669Z,0.75
2023-01-10T12:24:03.773Z,1.00
2023-01-10T12:29:21.111Z,1.00
2023-01-10T12:31:49.178Z,1.00
2023-01-10T12:34:45.849Z,1.00
2023-01-10T12:37:18.075Z,1.00
2023-01-10T12:39:47.687Z,1.00
2023-01-10T12:42:41.305Z,1.00
2023-01-10T12:45:19.338Z,1.00
2023-01-10T12:47:56.482Z,1.00
2023-01-10T12:50:25.830Z,1.00
2023-01-10T12:52:56.646Z,1.00
2023-01-10T12:55:41.913Z,1.00
2023-01-10T12:58:14.905Z,1.00
2023-01-10T13:00:56.951Z,1.00
2023-01-10T13:03:33.117Z,1.00
2023-01-10T13:06:01.746Z,1.00
2023-01-10T13:08:30.937Z,1.00
2023-01-10T13:11:21.616Z,1.00
2023-01-10T13:13:54.976Z,1.00
2023-01-10T13:16:28.959Z,1.75
2023-01-10T13:19:21.479Z,1.00
2023-01-10T13:21:52.016Z,1.00
2023-01-10T13:24:30.079Z,1.75
2023-01-10T13:26:58.989Z,1.50
2023-01-10T13:29:44.228Z,1.50
2023-01-10T13:32:39.210Z,1.00
2023-01-10T13:35:16.891Z,1.25
2023-01-10T13:37:45.676Z,1.00
2023-01-10T13:40:24.469Z,1.00
2023-01-10T13:43:39.541Z,2.00
2023-01-10T13:46:46.283Z,2.00
2023-01-10T13:49:42.861Z,1.25
2023-01-10T13:52:41.061Z,2.00
2023-01-10T13:55:31.509Z,1.00
2023-01-10T13:58:00.284Z,1.00
2023-01-10T14:01:05.024Z,1.00
2023-01-10T14:03:54.544Z,2.00
2023-01-10T14:06:41.473Z,1.00
2023-01-10T14:09:49.742Z,1.00
2023-01-10T14:12:24.299Z,1.00
2023-01-10T14:14:57.749Z,1.00
2023-01-10T14:17:34.015Z,1.00
2023-01-10T14:20:12.246Z,2.00
2023-01-10T14:22:41.354Z,1.50
2023-01-10T14:25:19.434Z,1.00
2023-01-10T14:27:49.764Z,1.00
2023-01-10T14:31:00.875Z,1.00
2023-01-10T14:33:28.903Z,1.00
2023-01-10T14:36:29.426Z,1.00
2023-01-10T14:38:59.267Z,1.00
2023-01-10T14:41:40.128Z,1.00
2023-01-10T14:44:12.105Z,1.00
2023-01-10T14:46:45.592Z,1.00
2023-01-10T14:49:27.159Z,1.00
2023-01-10T14:52:01.117Z,1.00
2023-01-10T14:54:30.681Z,1.00
2023-01-10T14:57:00.537Z,1.00
2023-01-10T14:59:53.327Z,1.75
2023-01-10T15:02:23.928Z,1.00
2023-01-10T15:04:56.096Z,1.00
2023-01-10T15:07:26.656Z,1.00
2023-01-10T15:10:36.919Z,0.75
2023-01-10T15:13:16.382Z,0.50
2023-01-10T15:15:47.102Z,1.00
2023-01-10T15:18:36.471Z,1.00
2023-01-10T15:21:07.909Z,1.25
2023-01-10T15:23:50.270Z,1.00
2023-01-10T15:26:19.531Z,1.00
2023-01-10T15:28:49.526Z,0.00
2023-01-10T15:31:17.912Z,1.00
2023-01-10T15:33:58.189Z,1.00
2023-01-10T15:36:28.116Z,0.00
2023-01-10T15:39:00.336Z,1.00
2023-01-10T15:41:29.755Z,0.75
2023-01-10T15:43:58.039Z,0.75
2023-01-10T15:46:27.370Z,1.00
2023-01-10T15:48:58.869Z,1.75
2023-01-10T15:51:38.613Z,0.50
2023-01-10T15:54:10.566Z,1.00
2023-01-10T15:57:04.564Z,1.00
2023-01-10T15:59:33.853Z,1.00
2023-01-10T16:02:06.839Z,1.00
2023-01-10T16:04:36.905Z,1.00
2023-01-10T16:07:20.644Z,1.00
2023-01-10T16:09:59.592Z,1.00
2023-01-10T16:12:52.197Z,1.00
2023-01-10T16:15:30.427Z,1.00
2023-01-10T16:17:58.472Z,1.00
2023-01-10T16:20:47.728Z,0.50
2023-01-10T16:23:19.325Z,1.00
2023-01-10T16:25:52.033Z,1.00
2023-01-10T16:28:36.456Z,1.00
2023-01-10T16:31:07.406Z,1.00
2023-01-10T16:33:45.478Z,1.00
2023-01-10T16:36:16.263Z,1.00
2023-01-10T16:38:44.515Z,0.75
2023-01-10T16:41:46.187Z,1.00
2023-01-10T16:44:49.660Z,2.00
2023-01-10T16:47:18.058Z,0.00
2023-01-10T16:49:47.011Z,1.25
2023-01-10T16:52:17.916Z,1.00
2023-01-10T16:54:45.794Z,1.00
2023-01-10T17:00:01.885Z,1.00
2023-01-10T17:02:30.116Z,2.00
2023-01-10T17:05:04.149Z,1.00
2023-01-10T17:07:32.186Z,1.00
2023-01-10T17:10:03.262Z,2.00
2023-01-10T17:12:36.775Z,2.75
2023-01-10T17:15:08.281Z,1.25
2023-01-10T17:18:05.398Z,2.25
2023-01-10T17:20:33.318Z,3.00
2023-01-10T17:23:01.848Z,3.00
2023-01-10T17:25:29.760Z,3.25
2023-01-10T17:28:01.070Z,3.50
2023-01-10T17:30:29.809Z,3.25
2023-01-10T17:32:58.644Z,3.50
2023-01-10T17:35:36.076Z,4.25
2023-01-10T17:38:04.431Z,4.00
2023-01-10T17:40:38.386Z,3.50
2023-01-10T17:43:07.874Z,4.00
2023-01-10T17:45:36.058Z,4.00
2023-01-10T17:48:03.946Z,4.00
2023-01-10T17:50:31.835Z,5.00
2023-01-10T17:52:59.817Z,4.00
2023-01-10T17:58:54.574Z,5.00
2023-01-10T18:01:28.399Z,5.00
2023-01-10T18:03:59.191Z,5.00
2023-01-10T18:06:27.807Z,6.00
2023-01-10T18:08:58.917Z,5.00
2023-01-10T18:11:33.713Z,6.00
2023-01-10T18:14:27.453Z,7.75
2023-01-10T18:16:55.356Z,7.00
2023-01-10T18:19:23.289Z,7.50
2023-01-10T18:22:22.853Z,7.00
2023-01-10T18:25:00.285Z,7.50
2023-01-10T18:27:31.643Z,8.00
2023-01-10T18:30:30.667Z,7.00
2023-01-10T18:32:58.717Z,7.75
2023-01-10T18:35:39.977Z,7.25
2023-01-10T18:38:07.978Z,8.50
2023-01-10T18:40:59.714Z,8.25
2023-01-10T18:43:37.465Z,8.25
2023-01-10T18:49:01.624Z,9.00
2023-01-10T18:51:30.518Z,8.00
2023-01-10T18:53:59.009Z,9.25
2023-01-10T18:56:28.903Z,9.00
2023-01-10T18:59:33.765Z,10.25
2023-01-10T19:02:17.282Z,9.00
2023-01-10T19:04:45.196Z,8.75
2023-01-10T19:07:13.439Z,9.50
2023-01-10T19:09:50.659Z,10.00
2023-01-10T19:12:18.560Z,9.00
2023-01-10T19:14:46.820Z,8.50
2023-01-10T19:17:17.268Z,8.25
2023-01-10T19:20:03.489Z,9.00
2023-01-10T19:22:31.421Z,9.25
2023-01-10T19:25:01.657Z,8.50
2023-01-10T19:27:29.837Z,8.75
2023-01-10T19:29:57.742Z,8.75
2023-01-10T19:32:29.673Z,8.75
2023-01-10T19:34:57.615Z,9.00
2023-01-10T19:37:25.890Z,9.00
2023-01-10T19:39:53.876Z,9.25
2023-01-10T19:42:25.144Z,9.75
2023-01-10T19:45:02.781Z,9.25
2023-01-10T19:47:35.221Z,9.75
2023-01-10T19:50:03.380Z,9.25
2023-01-10T19:52:40.289Z,10.00
2023-01-10T19:55:08.689Z,9.25
2023-01-10T19:57:49.007Z,10.50
2023-01-10T20:00:18.407Z,9.50
2023-01-10T20:02:57.343Z,10.00
2023-01-10T20:05:25.277Z,10.50
2023-01-10T20:07:53.220Z,9.25
2023-01-10T20:10:41.120Z,10.00
2023-01-10T20:13:10.619Z,10.50
2023-01-10T20:15:38.630Z,11.00
2023-01-10T20:18:08.724Z,10.75
2023-01-10T20:20:36.835Z,10.50
2023-01-10T20:23:05.924Z,10.25
2023-01-10T20:26:30.587Z,10.50
2023-01-10T20:29:02.416Z,11.50
2023-01-10T20:31:30.461Z,9.25
2023-01-10T20:33:59.799Z,11.25
2023-01-10T20:36:30.677Z,10.00
2023-01-10T20:38:58.851Z,10.25
2023-01-10T20:41:30.719Z,10.00
2023-01-10T20:43:58.628Z,9.00
2023-01-10T20:46:30.832Z,9.00
2023-01-10T20:49:02.364Z,9.25
2023-01-10T20:52:13.922Z,9.00
2023-01-10T20:54:41.781Z,9.50
2023-01-10T20:57:12.955Z,10.50
2023-01-10T20:59:43.558Z,9.50
2023-01-10T21:02:26.196Z,8.75
2023-01-10T21:04:55.715Z,8.75
2023-01-10T21:07:23.602Z,9.00
2023-01-10T21:13:04.083Z,7.00
2023-01-10T21:15:40.845Z,7.50
2023-01-10T21:18:08.931Z,8.50
2023-01-10T21:20:43.815Z,7.00
2023-01-10T21:23:33.116Z,7.00
2023-01-10T21:26:11.071Z,7.00
2023-01-10T21:28:46.764Z,6.00
2023-01-10T21:31:14.930Z,7.00
2023-01-10T21:36:28.885Z,6.75
2023-01-10T21:42:21.101Z,7.00
2023-01-10T21:45:12.439Z,6.50
2023-01-10T21:48:06.826Z,7.00
2023-01-10T21:50:44.808Z,8.00
2023-01-10T21:53:14.127Z,8.00
2023-01-10T21:56:19.343Z,9.00
2023-01-10T21:58:48.255Z,8.00
2023-01-10T22:01:27.912Z,8.75
2023-01-10T22:04:05.459Z,8.00
2023-01-10T22:07:00.585Z,7.50
2023-01-10T22:13:12.983Z,8.25
2023-01-10T22:15:41.905Z,8.00
2023-01-10T22:18:51.956Z,8.00
2023-01-10T22:21:38.265Z,7.50
2023-01-10T22:24:15.458Z,8.25
2023-01-10T22:26:47.163Z,8.50
2023-01-10T22:29:28.285Z,9.50
2023-01-10T22:35:13.980Z,9.00
2023-01-10T22:37:51.142Z,9.00
2023-01-10T22:40:31.762Z,10.00
2023-01-10T22:43:01.266Z,9.00
2023-01-10T22:48:26.296Z,8.25
2023-01-10T22:51:00.159Z,9.00
2023-01-10T22:53:31.400Z,9.00
2023-01-10T22:58:51.935Z,9.50
2023-01-10T23:01:28.947Z,9.00
2023-01-10T23:03:59.504Z,9.00
2023-01-10T23:06:42.827Z,7.50
2023-01-10T23:09:10.743Z,8.00
2023-01-10T23:11:38.917Z,9.00
2023-01-10T23:14:18.879Z,9.00
2023-01-10T23:16:47.245Z,8.00
2023-01-10T23:19:18.118Z,7.50
2023-01-10T23:22:32.669Z,7.75
2023-01-10T23:25:07.180Z,7.00
2023-01-10T23:30:53.626Z,8.00
2023-01-10T23:33:39.792Z,8.50
2023-01-10T23:36:08.506Z,7.00
2023-01-10T23:38:41.841Z,8.75
2023-01-10T23:41:15.713Z,8.00
2023-01-10T23:44:03.813Z,7.50
2023-01-10T23:46:54.075Z,7.50
2023-01-10T23:49:22.470Z,7.00
2023-01-10T23:51:59.875Z,6.00
2023-01-10T23:54:36.663Z,7.00
